Terminal Aerodrome Forecast
Issued by NWS Lake Charles, LA

Home | Current Version | Previous Version | Text Only | Print | Product List | Glossary On
Versions: 1 2 3 4 5 6 7 8 9 10 11 12 13 14 15 16 17 18 19 20 21
796
FTUS44 KLCH 231720
TAFLCH
TAF
KLCH 231720Z 2318/2418 18010G18KT P6SM FEW035
     FM240600 15012KT 6SM BR BKN015
     FM241500 15014G24KT P6SM OVC025=

USA.gov is the U.S. government's official web portal to all federal, state and local government web resources and services.